Terminal Aerodrome Forecast
Issued by NWS Northern Indiana

Home | Current Version | Previous Version | Graphics & Text | Print | Product List | Glossary Off
Versions: 1 2 3 4 5 6 7 8 9 10 11 12 13 14 15 16 17 18 19

304
FTUS43 KIWX 220852 AAA
TAFFWA
TAF AMD
KFWA 220852Z 2209/2306 VRB02KT 6SM BR VCSH SCT015 BKN040
      TEMPO 2209/2211 3SM BR BKN015
     FM221100 00000KT 2SM BR BKN015
     FM221500 05006KT P6SM SCT030 BKN080
     FM230000 04008KT 6SM BR OVC012
     FM230300 04010KT 2SM BR OVC008=

USA.gov is the U.S. government's official web portal to all federal, state and local government web resources and services.